Portada
METAR-TAF:

METAR-TAF

Aeroports :

Burlington-Alamance Regional Airport

Burlington, Carolina del Nord, Estats Units d'Amèrica

latitud: 36-02-52N, longitud: 079-28-26W, altitud: 188 m

Observació

L'informe es va fer fa 23 minuts, a les 16:54 UTC
Vent 6 kt del Oest/Sud-Oest
Temperatura 5°C
Humitat 75%
Pressió 1003 hPa
Visibilitat: 16.1 km
Núvols disperses a una alçada de 1500 ft
Cel ennuvolat a una alçada de 6000 ft
Cel cobert a una alçada de 7500 ft

METAR: KBUY 161654Z AUTO 25006KT 10SM SCT015 BKN060 OVC075 05/01 A2962 RMK AO2 SLP033 T00500011

Hora: 12:17 (17:17 UTC)


TAF: manca

Observacions i pronòstics meteorològics de més de 4000 aeroports (METAR i TAF).

Les estacions disponibles són els punts grocs i vermells al mapa.

Posi el ratolí al punt desitjat per veure el nom de l'estació.

Feu clic per veure les observacions i els pronòstics meteorològics.

Per canviar el mapa: feu clic els botons verds amb una creu de color negre per apropar; al botó verd amb un guió per allunyar la imatge; o en les fletxes verdes per a mapes adjacents.


METAR-TAF: